Aérodrome :
LOGIN :

S'inscrire | Disclaimer

   EN    FR    IT 

 










Légende :    VFR   VFR Marginal   IFR   IFR Intensif   IFR Très Intensif
Visi : 
Plafond : 
>= 8 km
>= 3000ft
5 à 8 km
1000 à 3000 ft
1500m à 5 km
500 à 1000 ft
800 à 1500m
200 à 500 ft
< 800m
< 200 ft
Symboles :   Orages  Brouillard  Fortes neiges  Fortes précipitations  Vent > 20 kt
SIGMETs :   Divers  Orages  Givrage  Turbulence  Onde Orograph.  Cendres Volcan.







- Altitude de l'aérodrome : 16 ft
- Code IATA : EAS


LESO - San Sebastian Fuenterrabia

DERNIER METAR :
  • 281200Z VRB05G15KT 9999 FEW017 SCT030 BKN049 21/17 Q1005

METARs EXPIRÉS :
  • 281130Z VRB06KT 6000 SCT030 BKN049CB 21/17 Q1005
  • 281109Z 27005G15KT 200V010 9999 TSRA SCT030 BKN049CB 24/16 Q1005
  • 281100Z VRB05KT 9999 SCT049 24/14 Q1004
  • 281030Z 25008KT 190V330 9999 SCT049 25/14 Q1004
  • 281000Z 21011KT 180V260 9999 FEW050 25/14 Q1004
  • 280930Z 21009KT 170V260 9999 FEW054 24/14 Q1004

TAF TAF LESO
Valide du 28 à 12h jusqu'au 29 à 12h UTC


281100Z 2812/2912 27008KT 9999 SCT020 BKN040 TX25/2812Z TN15/2905Z
TEMPO 2812/2912 28015G25KT
TEMPO 2812/2903 28018G35KT
PROB30
TEMPO 2818/2822 29025G40KT
TEMPO 2812/2912 SHRA SCT030TCU
PROB40
TEMPO 2812/2822 3000 +SHRA TS BKN012 BKN025CB
Pas de NOTAMs connus pour ce terrain.
1 SIGMET publié pour la FIR Madrid (LECM) :
 
Orages noyés dans la masse
LECM SIGMET 4 VALID 281046/281200 LEVA
LECM MADRID FIR/UIR EMBD TS FCST N OF LINE N43 W00420 - N4220 W00050 TOP FL320 MOV NE NC=



MET'MAP, la Météo Aéronautique d'un coup d'oeil ! - Copyright ORBIFLY Décembre 2007 - Disclaimer

ORBIFLY MET'MAP TEAM :

Programmation & Développement : Alexandra Zaïnal
Conception & Développement : Baudouin d'Aumeries
Co-Programmation & Développement : Marc-Olivier Méhu
Soutien technique & logistique : Manuel Goepfert

Contact : metmap@orbifly.com




SOURCES & CREDITS :

   NOAA